Time;durP1;ratioP1;P1;durP2;ratioP2;P2;SDS_P1;SDS_P2;PMS_P1;PMS_P2;Temp;Humidity;BMP_temperature;BMP_pressure;BME280_temperature;BME280_humidity;BME280_pressure;Samples;Min_cycle;Max_cycle;Signal;HPM_P1;HPM_P2
2021/08/23 00:00:38;;;;;;;;;;;17.70;99.90;;;;;;5046784;28;19931;-80
2021/08/23 00:03:05;;;;;;;;;;;17.60;99.90;;;;;;5047418;28;19908;-80
2021/08/23 00:05:33;;;;;;;;;;;17.60;99.90;;;;;;5047164;28;19913;-81
2021/08/23 00:07:59;;;;;;;;;;;17.70;99.90;;;;;;5048593;28;19931;-81
2021/08/23 00:10:24;;;;;;;;;;;17.80;99.90;;;;;;5047501;28;19909;-82
2021/08/23 00:12:50;;;;;;;;;;;17.70;99.90;;;;;;5046105;28;19912;-81
2021/08/23 00:15:15;;;;;;;;;;;17.70;99.90;;;;;;5062316;28;19990;-80
2021/08/23 00:17:41;;;;;;;;;;;17.60;99.90;;;;;;5046338;28;19967;-81
2021/08/23 00:20:07;;;;;;;;;;;17.70;99.90;;;;;;5044429;28;19920;-80
2021/08/23 00:22:36;;;;;;;;;;;17.60;99.90;;;;;;5047053;28;19909;-80
2021/08/23 00:25:02;;;;;;;;;;;17.60;99.90;;;;;;5046705;28;19912;-81
2021/08/23 00:27:28;;;;;;;;;;;17.60;99.90;;;;;;5042435;28;20271;-81
2021/08/23 00:29:54;;;;;;;;;;;17.60;99.90;;;;;;5043817;28;19905;-80
2021/08/23 00:32:19;;;;;;;;;;;17.50;99.90;;;;;;5043823;28;19951;-80
2021/08/23 00:34:45;;;;;;;;;;;17.50;99.90;;;;;;5051249;28;19908;-79
2021/08/23 00:37:10;;;;;;;;;;;17.50;99.90;;;;;;5062151;28;19909;-80
2021/08/23 00:39:36;;;;;;;;;;;17.50;99.90;;;;;;5040340;28;20095;-80
2021/08/23 00:42:03;;;;;;;;;;;17.50;99.90;;;;;;5039975;28;19905;-80
2021/08/23 00:44:29;;;;;;;;;;;17.50;99.90;;;;;;5041520;28;19971;-82
2021/08/23 00:46:56;;;;;;;;;;;17.50;99.90;;;;;;5043199;28;19991;-80
2021/08/23 00:49:21;;;;;;;;;;;17.50;99.90;;;;;;5045189;28;19909;-82
2021/08/23 00:51:47;;;;;;;;;;;17.60;99.90;;;;;;5043852;28;20387;-80
2021/08/23 00:54:12;;;;;;;;;;;17.60;99.90;;;;;;5044946;28;19972;-81
2021/08/23 00:56:38;;;;;;;;;;;17.60;99.90;;;;;;5059855;28;19909;-81
2021/08/23 00:59:08;;;;;;;;;;;17.60;99.90;;;;;;5041596;28;19967;-81
2021/08/23 01:01:39;;;;;;;;;;;17.50;99.90;;;;;;5059105;28;20371;-80
2021/08/23 01:04:09;;;;;;;;;;;17.50;99.90;;;;;;5044387;28;19905;-80
2021/08/23 01:06:35;;;;;;;;;;;17.50;99.90;;;;;;5043036;28;19905;-81
2021/08/23 01:09:08;;;;;;;;;;;17.50;99.90;;;;;;5041187;28;19930;-80
2021/08/23 01:11:36;;;;;;;;;;;17.40;99.90;;;;;;5043093;28;19905;-80
2021/08/23 01:14:02;;;;;;;;;;;17.40;99.90;;;;;;5043882;28;19905;-80
2021/08/23 01:16:28;;;;;;;;;;;17.50;99.90;;;;;;5043970;28;19917;-80
2021/08/23 01:18:54;;;;;;;;;;;17.50;99.90;;;;;;5043491;28;19919;-80
2021/08/23 01:21:22;;;;;;;;;;;17.50;99.90;;;;;;5042114;28;19916;-80
2021/08/23 01:23:47;;;;;;;;;;;17.40;99.90;;;;;;5042099;28;19915;-80
2021/08/23 01:26:15;;;;;;;;;;;17.40;99.90;;;;;;5042717;28;20453;-81
2021/08/23 01:28:45;;;;;;;;;;;17.50;99.90;;;;;;5042169;28;19913;-81
2021/08/23 01:31:14;;;;;;;;;;;17.50;99.90;;;;;;5043053;28;19916;-80
2021/08/23 01:33:40;;;;;;;;;;;17.60;99.90;;;;;;5046376;28;19911;-80
2021/08/23 01:36:06;;;;;;;;;;;17.60;99.90;;;;;;5047906;28;19937;-80
2021/08/23 01:38:32;;;;;;;;;;;17.50;99.90;;;;;;5046677;28;19893;-80
2021/08/23 01:41:01;;;;;;;;;;;17.60;99.90;;;;;;5046992;28;19981;-80
2021/08/23 01:43:26;;;;;;;;;;;17.50;99.90;;;;;;5043094;28;19917;-80
2021/08/23 01:45:52;;;;;;;;;;;17.50;99.90;;;;;;5040285;28;19928;-81
2021/08/23 01:48:18;;;;;;;;;;;17.50;99.90;;;;;;5040114;28;19915;-81
2021/08/23 01:50:43;;;;;;;;;;;17.60;99.90;;;;;;5040661;28;19916;-81
2021/08/23 01:53:08;;;;;;;;;;;17.60;99.90;;;;;;5056493;28;19905;-81
2021/08/23 01:55:34;;;;;;;;;;;17.50;99.90;;;;;;5056424;28;19905;-81
2021/08/23 01:58:02;;;;;;;;;;;17.60;99.90;;;;;;5042132;28;19916;-80
2021/08/23 02:00:27;;;;;;;;;;;17.60;99.90;;;;;;5040598;28;19905;-80
2021/08/23 02:02:53;;;;;;;;;;;17.60;99.90;;;;;;5040677;28;19952;-82
2021/08/23 02:05:18;;;;;;;;;;;17.60;99.90;;;;;;5039479;28;20278;-81
2021/08/23 02:07:44;;;;;;;;;;;17.60;99.90;;;;;;5040030;28;20457;-80
2021/08/23 02:10:10;;;;;;;;;;;17.60;99.90;;;;;;5039109;28;19905;-81
2021/08/23 02:12:35;;;;;;;;;;;17.60;99.90;;;;;;5039647;28;19905;-80
2021/08/23 02:15:01;;;;;;;;;;;17.60;99.90;;;;;;5039098;28;19912;-80
2021/08/23 02:17:26;;;;;;;;;;;17.50;99.90;;;;;;5038070;28;19916;-80
2021/08/23 02:19:52;;;;;;;;;;;17.60;99.90;;;;;;5039116;28;19909;-81
2021/08/23 02:22:17;;;;;;;;;;;17.60;99.90;;;;;;5039029;28;20392;-80
2021/08/23 02:24:42;;;;;;;;;;;17.60;99.90;;;;;;5038436;28;19905;-81
2021/08/23 02:27:08;;;;;;;;;;;17.60;99.90;;;;;;5039293;28;20409;-80
2021/08/23 02:29:34;;;;;;;;;;;17.60;99.90;;;;;;5040062;28;19981;-82
2021/08/23 02:31:59;;;;;;;;;;;17.70;99.90;;;;;;5039149;28;20274;-81
2021/08/23 02:34:25;;;;;;;;;;;17.70;99.90;;;;;;5040316;28;19905;-80
2021/08/23 02:36:50;;;;;;;;;;;17.70;99.90;;;;;;5056194;28;19913;-81
2021/08/23 02:39:16;;;;;;;;;;;17.70;99.90;;;;;;5039801;28;19931;-80
2021/08/23 02:41:41;;;;;;;;;;;17.70;99.90;;;;;;5038490;28;20427;-80
2021/08/23 02:44:07;;;;;;;;;;;17.70;99.90;;;;;;5055880;28;19909;-80
2021/08/23 02:46:33;;;;;;;;;;;17.70;99.90;;;;;;5038603;28;20043;-80
2021/08/23 02:48:58;;;;;;;;;;;17.70;99.90;;;;;;5039019;28;19976;-80
2021/08/23 02:51:24;;;;;;;;;;;17.70;99.90;;;;;;5038457;28;20330;-81
2021/08/23 02:53:49;;;;;;;;;;;17.70;99.90;;;;;;5039607;28;19996;-80
2021/08/23 02:56:15;;;;;;;;;;;17.70;99.90;;;;;;5038917;28;19912;-80
2021/08/23 02:58:40;;;;;;;;;;;17.60;99.90;;;;;;5041143;28;19905;-80
2021/08/23 03:01:06;;;;;;;;;;;17.60;99.90;;;;;;5055418;28;19909;-80
2021/08/23 03:03:33;;;;;;;;;;;17.60;99.90;;;;;;5039427;28;19928;-80
2021/08/23 03:05:59;;;;;;;;;;;17.60;99.90;;;;;;5038785;28;20309;-80
2021/08/23 03:08:24;;;;;;;;;;;17.60;99.90;;;;;;5024119;28;19913;-80
2021/08/23 03:10:54;;;;;;;;;;;17.60;99.90;;;;;;5040407;28;19959;-81
2021/08/23 03:13:20;;;;;;;;;;;17.60;99.90;;;;;;5040046;28;20458;-80
2021/08/23 03:15:45;;;;;;;;;;;17.50;99.90;;;;;;5039085;28;19905;-81
2021/08/23 03:18:11;;;;;;;;;;;17.60;99.90;;;;;;5036513;28;19920;-81
2021/08/23 03:20:36;;;;;;;;;;;17.60;99.90;;;;;;5035678;28;19915;-80
2021/08/23 03:23:02;;;;;;;;;;;17.50;99.90;;;;;;5035955;28;19949;-81
2021/08/23 03:25:27;;;;;;;;;;;17.50;99.90;;;;;;5036504;28;19962;-82
2021/08/23 03:27:53;;;;;;;;;;;17.50;99.90;;;;;;5034879;28;19939;-81
2021/08/23 03:30:18;;;;;;;;;;;17.50;99.90;;;;;;5035090;28;19905;-80
2021/08/23 03:32:44;;;;;;;;;;;17.60;99.90;;;;;;5045377;28;19889;-80
2021/08/23 03:35:09;;;;;;;;;;;17.60;99.90;;;;;;5039327;28;19905;-80
2021/08/23 03:37:35;;;;;;;;;;;17.60;99.90;;;;;;5036112;28;19905;-80
2021/08/23 03:40:00;;;;;;;;;;;17.50;99.90;;;;;;5035748;28;19905;-80
2021/08/23 03:42:26;;;;;;;;;;;17.50;99.90;;;;;;5036212;28;19905;-81
2021/08/23 03:44:51;;;;;;;;;;;17.50;99.90;;;;;;5036029;28;19920;-80
2021/08/23 03:47:17;;;;;;;;;;;17.50;99.90;;;;;;5052143;28;19909;-81
2021/08/23 03:49:43;;;;;;;;;;;17.60;99.90;;;;;;5034544;28;19916;-80
2021/08/23 03:52:09;;;;;;;;;;;17.60;99.90;;;;;;5018796;28;19909;-81
2021/08/23 03:54:34;;;;;;;;;;;17.50;99.90;;;;;;5053059;28;19909;-81
2021/08/23 03:57:00;;;;;;;;;;;17.60;99.90;;;;;;5035954;28;19905;-81
2021/08/23 03:59:25;;;;;;;;;;;17.60;99.90;;;;;;5036754;28;20008;-81
2021/08/23 04:01:51;;;;;;;;;;;17.60;99.90;;;;;;5038301;28;20350;-80
2021/08/23 04:04:16;;;;;;;;;;;17.60;99.90;;;;;;5039236;28;20106;-82
2021/08/23 04:06:44;;;;;;;;;;;17.60;99.90;;;;;;5038930;28;19912;-81
2021/08/23 04:09:11;;;;;;;;;;;17.60;99.90;;;;;;5040400;28;19916;-81
2021/08/23 04:11:36;;;;;;;;;;;17.60;99.90;;;;;;5040165;28;19911;-81
2021/08/23 04:14:02;;;;;;;;;;;17.60;99.90;;;;;;5040597;28;20338;-81
2021/08/23 04:16:27;;;;;;;;;;;17.60;99.90;;;;;;5039379;28;20328;-80
2021/08/23 04:18:53;;;;;;;;;;;17.60;99.90;;;;;;5056656;28;19913;-81
2021/08/23 04:21:18;;;;;;;;;;;17.70;99.90;;;;;;5057850;28;20377;-82
2021/08/23 04:23:44;;;;;;;;;;;17.70;99.90;;;;;;5057294;28;19905;-81
2021/08/23 04:26:09;;;;;;;;;;;17.70;99.90;;;;;;5039350;28;19912;-81
2021/08/23 04:28:35;;;;;;;;;;;17.70;99.90;;;;;;5040867;28;20051;-80
2021/08/23 04:31:00;;;;;;;;;;;17.70;99.90;;;;;;5040883;28;19905;-81
2021/08/23 04:33:26;;;;;;;;;;;17.70;99.90;;;;;;5040515;28;19905;-81
2021/08/23 04:35:51;;;;;;;;;;;17.70;99.90;;;;;;5041438;28;20251;-81
2021/08/23 04:38:17;;;;;;;;;;;17.70;99.90;;;;;;5038931;28;19935;-81
2021/08/23 04:40:43;;;;;;;;;;;17.70;99.90;;;;;;5039904;28;20041;-81
2021/08/23 04:43:08;;;;;;;;;;;17.70;99.90;;;;;;5041422;28;19907;-81
2021/08/23 04:45:34;;;;;;;;;;;17.70;99.90;;;;;;5039887;28;20350;-80
2021/08/23 04:47:59;;;;;;;;;;;17.60;99.90;;;;;;5038720;28;19942;-80
2021/08/23 04:50:25;;;;;;;;;;;17.60;99.90;;;;;;5039842;28;19912;-80
2021/08/23 04:52:50;;;;;;;;;;;17.60;99.90;;;;;;5038789;28;20346;-80
2021/08/23 04:55:17;;;;;;;;;;;17.70;99.90;;;;;;5039800;28;19952;-80
2021/08/23 04:57:42;;;;;;;;;;;17.70;99.90;;;;;;5039078;28;19909;-81
2021/08/23 05:00:08;;;;;;;;;;;17.70;99.90;;;;;;5039453;28;20358;-80
2021/08/23 05:02:34;;;;;;;;;;;17.60;99.90;;;;;;5056405;28;19951;-80
2021/08/23 05:04:59;;;;;;;;;;;17.60;99.90;;;;;;5039958;28;19905;-80
2021/08/23 05:07:25;;;;;;;;;;;17.60;99.90;;;;;;5040160;28;19889;-80
2021/08/23 05:09:50;;;;;;;;;;;17.60;99.90;;;;;;5040008;28;20057;-81
2021/08/23 05:12:16;;;;;;;;;;;17.70;99.90;;;;;;5038527;28;19905;-82
2021/08/23 05:14:41;;;;;;;;;;;17.70;99.90;;;;;;5039504;28;19905;-81
2021/08/23 05:17:07;;;;;;;;;;;17.70;99.90;;;;;;5038157;28;19912;-80
2021/08/23 05:19:32;;;;;;;;;;;17.60;99.90;;;;;;5038342;28;19916;-80
2021/08/23 05:21:58;;;;;;;;;;;17.60;99.90;;;;;;5039095;28;19916;-81
2021/08/23 05:24:23;;;;;;;;;;;17.60;99.90;;;;;;5039422;28;19909;-81
2021/08/23 05:26:49;;;;;;;;;;;17.60;99.90;;;;;;5040196;28;19905;-80
2021/08/23 05:29:14;;;;;;;;;;;17.60;99.90;;;;;;5040187;28;20024;-81
2021/08/23 05:31:40;;;;;;;;;;;17.50;99.90;;;;;;5038702;28;19905;-79
2021/08/23 05:34:05;;;;;;;;;;;17.50;99.90;;;;;;5037850;28;19944;-80
2021/08/23 05:36:31;;;;;;;;;;;17.60;99.90;;;;;;5037820;28;20019;-80
2021/08/23 05:38:57;;;;;;;;;;;17.60;99.90;;;;;;5037980;28;19913;-81
2021/08/23 05:41:22;;;;;;;;;;;17.60;99.90;;;;;;5038171;28;19948;-80
2021/08/23 05:43:48;;;;;;;;;;;17.60;99.90;;;;;;5039507;28;19935;-81
2021/08/23 05:46:15;;;;;;;;;;;17.60;99.90;;;;;;5037811;28;19916;-80
2021/08/23 05:48:41;;;;;;;;;;;17.60;99.90;;;;;;5038606;28;19916;-80
2021/08/23 05:51:09;;;;;;;;;;;17.60;99.90;;;;;;5038686;28;19909;-80
2021/08/23 05:53:35;;;;;;;;;;;17.60;99.90;;;;;;5037607;28;20247;-80
2021/08/23 05:56:00;;;;;;;;;;;17.50;99.90;;;;;;5054032;28;19951;-81
2021/08/23 05:58:26;;;;;;;;;;;17.60;99.90;;;;;;5038126;28;19905;-81
2021/08/23 06:00:51;;;;;;;;;;;17.50;99.90;;;;;;5038661;28;19959;-81
2021/08/23 06:03:17;;;;;;;;;;;17.60;99.90;;;;;;5037327;28;19908;-80
2021/08/23 06:05:42;;;;;;;;;;;17.50;99.90;;;;;;5037666;28;20312;-80
2021/08/23 06:08:08;;;;;;;;;;;17.60;99.90;;;;;;5038260;28;19909;-81
2021/08/23 06:10:34;;;;;;;;;;;17.50;99.90;;;;;;5038708;28;19905;-82
2021/08/23 06:12:59;;;;;;;;;;;17.50;99.90;;;;;;5039097;28;19913;-81
2021/08/23 06:15:25;;;;;;;;;;;17.50;99.90;;;;;;5054181;28;19916;-80
2021/08/23 06:17:50;;;;;;;;;;;17.50;99.90;;;;;;5038162;28;19964;-80
2021/08/23 06:20:16;;;;;;;;;;;17.50;99.90;;;;;;5039179;28;19905;-81
2021/08/23 06:22:43;;;;;;;;;;;17.50;99.90;;;;;;5055057;28;19905;-81
2021/08/23 06:25:09;;;;;;;;;;;17.50;99.90;;;;;;5037272;28;20012;-81
2021/08/23 06:27:34;;;;;;;;;;;17.50;99.90;;;;;;5038518;28;19963;-81
2021/08/23 06:30:02;;;;;;;;;;;17.50;99.90;;;;;;5045879;28;19912;-80
2021/08/23 06:32:28;;;;;;;;;;;17.50;99.90;;;;;;5043349;28;19909;-80
2021/08/23 06:34:54;;;;;;;;;;;17.50;99.90;;;;;;5036893;28;19906;-80
2021/08/23 06:37:19;;;;;;;;;;;17.60;99.90;;;;;;5036524;28;19905;-80
2021/08/23 06:39:45;;;;;;;;;;;17.70;99.90;;;;;;5036840;28;19905;-80
2021/08/23 06:42:10;;;;;;;;;;;17.70;99.90;;;;;;5037158;28;19966;-80
2021/08/23 06:44:36;;;;;;;;;;;17.70;99.90;;;;;;5038602;28;19913;-80
2021/08/23 06:47:01;;;;;;;;;;;17.60;99.90;;;;;;5037164;28;19912;-80
2021/08/23 06:49:27;;;;;;;;;;;17.60;99.90;;;;;;5036929;28;19920;-81
2021/08/23 06:51:52;;;;;;;;;;;17.50;99.90;;;;;;5037480;28;19948;-80
2021/08/23 06:54:18;;;;;;;;;;;17.60;99.90;;;;;;5035858;28;19909;-81
2021/08/23 06:56:43;;;;;;;;;;;17.60;99.90;;;;;;5036472;28;19944;-81
2021/08/23 06:59:09;;;;;;;;;;;17.70;99.90;;;;;;5034678;28;19915;-81
2021/08/23 07:01:35;;;;;;;;;;;17.70;99.90;;;;;;5036839;28;19911;-80
2021/08/23 07:04:01;;;;;;;;;;;17.70;99.90;;;;;;5037183;28;19952;-79
2021/08/23 07:06:27;;;;;;;;;;;17.60;99.90;;;;;;5054336;28;20266;-80
2021/08/23 07:08:53;;;;;;;;;;;17.70;99.90;;;;;;5037457;28;19909;-81
2021/08/23 07:11:19;;;;;;;;;;;17.80;99.90;;;;;;5041915;28;19942;-82
2021/08/23 07:13:44;;;;;;;;;;;17.70;99.90;;;;;;5042068;28;20408;-80
2021/08/23 07:16:10;;;;;;;;;;;17.80;99.90;;;;;;5038817;28;19905;-80
2021/08/23 07:18:37;;;;;;;;;;;17.80;99.90;;;;;;5038642;28;19947;-80
2021/08/23 07:21:03;;;;;;;;;;;17.80;99.90;;;;;;5037886;28;19913;-81
2021/08/23 07:23:28;;;;;;;;;;;17.80;99.90;;;;;;5036873;28;19909;-81
2021/08/23 07:25:54;;;;;;;;;;;17.80;99.90;;;;;;5037239;28;19905;-81
2021/08/23 07:28:19;;;;;;;;;;;17.80;99.90;;;;;;5037693;28;19913;-81
2021/08/23 07:30:45;;;;;;;;;;;17.80;99.90;;;;;;5037728;28;19905;-80
2021/08/23 07:33:11;;;;;;;;;;;17.80;99.90;;;;;;5036877;28;19956;-81
2021/08/23 07:35:37;;;;;;;;;;;17.70;99.90;;;;;;5036994;28;19905;-80
2021/08/23 07:38:02;;;;;;;;;;;17.80;99.90;;;;;;5040389;28;19912;-80
2021/08/23 07:40:28;;;;;;;;;;;17.80;99.90;;;;;;5040977;28;19909;-81
2021/08/23 07:42:54;;;;;;;;;;;17.80;99.90;;;;;;5029770;28;19909;-81
2021/08/23 07:45:20;;;;;;;;;;;17.80;99.90;;;;;;5035344;28;19917;-81
2021/08/23 07:47:46;;;;;;;;;;;17.80;99.90;;;;;;5040742;28;20002;-82
2021/08/23 07:50:15;;;;;;;;;;;17.80;99.90;;;;;;5057097;28;19991;-82
2021/08/23 07:52:40;;;;;;;;;;;17.90;99.90;;;;;;5035364;28;19905;-81
2021/08/23 07:55:07;;;;;;;;;;;18.00;99.90;;;;;;5050695;28;19912;-81
2021/08/23 07:57:32;;;;;;;;;;;18.10;99.90;;;;;;5029112;28;19913;-81
2021/08/23 07:59:58;;;;;;;;;;;18.10;99.90;;;;;;5023853;28;19901;-80
2021/08/23 08:02:23;;;;;;;;;;;18.10;99.90;;;;;;5040570;28;19967;-80
2021/08/23 08:04:50;;;;;;;;;;;18.00;99.90;;;;;;5031667;28;19909;-80
2021/08/23 08:07:18;;;;;;;;;;;18.00;99.90;;;;;;5050576;28;19913;-80
2021/08/23 08:09:44;;;;;;;;;;;18.10;99.90;;;;;;5040399;28;19980;-80
2021/08/23 08:12:09;;;;;;;;;;;18.20;99.90;;;;;;5035895;28;19909;-80
2021/08/23 08:14:35;;;;;;;;;;;18.20;99.90;;;;;;5028465;28;19913;-80
2021/08/23 08:17:00;;;;;;;;;;;18.20;99.90;;;;;;5030143;28;19905;-80
2021/08/23 08:19:26;;;;;;;;;;;18.20;99.90;;;;;;5030971;28;19947;-79
2021/08/23 08:21:51;;;;;;;;;;;18.10;99.90;;;;;;5031900;28;20362;-80
2021/08/23 08:24:17;;;;;;;;;;;18.20;99.90;;;;;;5025018;28;20220;-80
2021/08/23 08:26:43;;;;;;;;;;;18.20;99.90;;;;;;5038525;28;20358;-79
2021/08/23 08:29:08;;;;;;;;;;;18.20;99.90;;;;;;5043436;28;20285;-81
2021/08/23 08:31:34;;;;;;;;;;;18.20;99.90;;;;;;5054360;28;19909;-79
2021/08/23 08:33:59;;;;;;;;;;;18.20;99.90;;;;;;5035084;28;20148;-80
2021/08/23 08:36:25;;;;;;;;;;;18.20;99.90;;;;;;5031849;28;19905;-80
2021/08/23 08:38:50;;;;;;;;;;;18.20;99.90;;;;;;5034848;28;19912;-79
2021/08/23 08:41:16;;;;;;;;;;;18.30;99.90;;;;;;5057130;28;19951;-80
2021/08/23 08:43:42;;;;;;;;;;;18.20;99.90;;;;;;5039494;28;19909;-80
2021/08/23 08:46:07;;;;;;;;;;;18.20;99.90;;;;;;5032422;28;20012;-80
2021/08/23 08:48:33;;;;;;;;;;;18.30;99.90;;;;;;5049149;28;20266;-81
2021/08/23 08:50:59;;;;;;;;;;;18.30;99.90;;;;;;5055416;28;19909;-80
2021/08/23 08:53:25;;;;;;;;;;;18.50;99.90;;;;;;5032490;28;19905;-80
2021/08/23 08:55:50;;;;;;;;;;;18.70;99.90;;;;;;5043559;28;19972;-81
2021/08/23 08:58:20;;;;;;;;;;;18.90;99.90;;;;;;5050439;28;19909;-80
2021/08/23 09:00:46;;;;;;;;;;;18.80;99.90;;;;;;5047828;28;19962;-80
2021/08/23 09:03:11;;;;;;;;;;;18.70;99.90;;;;;;5049290;28;19905;-80
2021/08/23 09:05:38;;;;;;;;;;;18.70;99.90;;;;;;5044837;28;19909;-80
2021/08/23 09:08:04;;;;;;;;;;;18.70;99.90;;;;;;5034369;28;19955;-80
2021/08/23 09:10:31;;;;;;;;;;;18.80;99.90;;;;;;5039024;28;19909;-81
2021/08/23 09:13:02;;;;;;;;;;;18.80;99.90;;;;;;5027815;28;19920;-80
2021/08/23 09:15:27;;;;;;;;;;;18.80;99.90;;;;;;5056598;28;19963;-83
2021/08/23 09:18:02;;;;;;;;;;;18.90;99.90;;;;;;5038757;28;19983;-81
2021/08/23 09:20:28;;;;;;;;;;;19.00;99.90;;;;;;5039214;28;20475;-81
2021/08/23 09:22:53;;;;;;;;;;;19.10;99.90;;;;;;5046241;28;19909;-81
2021/08/23 09:25:23;;;;;;;;;;;19.20;99.90;;;;;;5041370;28;19999;-81
2021/08/23 09:27:49;;;;;;;;;;;19.50;99.90;;;;;;5048465;28;19928;-81
2021/08/23 09:30:15;;;;;;;;;;;19.60;99.90;;;;;;5041383;28;20274;-80
2021/08/23 09:32:48;;;;;;;;;;;19.70;99.90;;;;;;5037949;28;20220;-80
2021/08/23 09:35:24;;;;;;;;;;;19.50;99.90;;;;;;5035449;28;19905;-80
2021/08/23 09:37:49;;;;;;;;;;;19.50;99.90;;;;;;5031664;28;20425;-80
2021/08/23 09:40:17;;;;;;;;;;;19.50;99.90;;;;;;5052343;28;19912;-80
2021/08/23 09:42:43;;;;;;;;;;;19.60;99.90;;;;;;5053819;28;19905;-80
2021/08/23 09:45:18;;;;;;;;;;;19.70;99.90;;;;;;5055187;28;19905;-80
2021/08/23 09:47:44;;;;;;;;;;;19.70;99.90;;;;;;5040213;28;19913;-80
2021/08/23 09:50:16;;;;;;;;;;;19.50;99.90;;;;;;5040427;28;19905;-80
2021/08/23 09:52:42;;;;;;;;;;;19.40;99.90;;;;;;5042341;28;20392;-81
2021/08/23 09:55:09;;;;;;;;;;;19.30;99.90;;;;;;5040589;28;19909;-80
2021/08/23 09:57:36;;;;;;;;;;;19.40;99.90;;;;;;5040040;28;19905;-80
2021/08/23 10:00:03;;;;;;;;;;;19.60;99.90;;;;;;5041580;28;19905;-80
2021/08/23 10:02:29;;;;;;;;;;;19.80;99.90;;;;;;5040952;28;19909;-80
2021/08/23 10:04:55;;;;;;;;;;;20.60;99.90;;;;;;5040835;28;19912;-80
2021/08/23 10:07:21;;;;;;;;;;;20.90;99.90;;;;;;5040872;28;19909;-80
2021/08/23 10:09:47;;;;;;;;;;;21.00;99.90;;;;;;5039596;28;19909;-81
2021/08/23 10:12:15;;;;;;;;;;;20.40;99.90;;;;;;5033134;28;19910;-80
2021/08/23 10:14:42;;;;;;;;;;;20.30;99.90;;;;;;5029954;28;19916;-80
2021/08/23 10:17:08;;;;;;;;;;;20.30;99.90;;;;;;5047758;28;20012;-80
2021/08/23 10:19:33;;;;;;;;;;;20.20;99.90;;;;;;5032137;28;19914;-80
2021/08/23 10:22:00;;;;;;;;;;;20.30;99.90;;;;;;5049045;28;19905;-81
2021/08/23 10:24:26;;;;;;;;;;;20.20;99.90;;;;;;5056130;28;19951;-80
2021/08/23 10:26:52;;;;;;;;;;;20.10;99.90;;;;;;5042307;28;19969;-80
2021/08/23 10:29:18;;;;;;;;;;;20.20;99.90;;;;;;5048197;28;19924;-80
2021/08/23 10:31:44;;;;;;;;;;;20.50;99.90;;;;;;5053541;28;19916;-80
2021/08/23 10:34:11;;;;;;;;;;;20.90;99.90;;;;;;5041846;28;19917;-79
2021/08/23 10:36:37;;;;;;;;;;;21.00;99.90;;;;;;5059834;28;19913;-81
2021/08/23 10:39:03;;;;;;;;;;;21.20;99.90;;;;;;5055136;28;19936;-81
2021/08/23 10:41:28;;;;;;;;;;;21.30;99.90;;;;;;5051307;28;19909;-80
2021/08/23 10:43:58;;;;;;;;;;;21.20;99.90;;;;;;5052189;28;20369;-80
2021/08/23 10:46:28;;;;;;;;;;;21.40;99.90;;;;;;5059978;28;19905;-80
2021/08/23 10:48:54;;;;;;;;;;;21.50;99.90;;;;;;5040066;28;19916;-80
2021/08/23 10:51:30;;;;;;;;;;;21.40;99.90;;;;;;5036777;28;19916;-80
2021/08/23 10:53:56;;;;;;;;;;;21.70;99.90;;;;;;5037038;28;19912;-80
2021/08/23 10:56:22;;;;;;;;;;;22.20;99.90;;;;;;5050866;28;20293;-80
2021/08/23 10:58:48;;;;;;;;;;;22.70;99.90;;;;;;5039396;28;19921;-80
2021/08/23 11:01:15;;;;;;;;;;;23.10;99.90;;;;;;5039826;28;19916;-80
2021/08/23 11:03:40;;;;;;;;;;;22.70;99.90;;;;;;5036117;28;20282;-80
2021/08/23 11:06:06;;;;;;;;;;;22.80;99.90;;;;;;5035424;28;20003;-81
2021/08/23 11:08:31;;;;;;;;;;;23.00;99.90;;;;;;5019997;28;19909;-81
2021/08/23 11:11:10;;;;;;;;;;;23.10;99.90;;;;;;5018307;28;20106;-80
2021/08/23 11:13:39;;;;;;;;;;;23.00;99.90;;;;;;5020156;28;20416;-80
2021/08/23 11:16:06;;;;;;;;;;;23.20;99.90;;;;;;5025056;28;19917;-80
2021/08/23 11:18:38;;;;;;;;;;;23.20;99.90;;;;;;5042406;28;19960;-80
2021/08/23 11:21:04;;;;;;;;;;;23.10;99.90;;;;;;5037995;28;20270;-79
2021/08/23 11:23:30;;;;;;;;;;;22.80;99.90;;;;;;5033591;28;19920;-80
2021/08/23 11:26:01;;;;;;;;;;;22.50;99.90;;;;;;5037919;28;20390;-80
2021/08/23 11:28:29;;;;;;;;;;;22.00;99.90;;;;;;5049963;28;20362;-79
2021/08/23 11:30:55;;;;;;;;;;;21.60;99.90;;;;;;5032897;28;19955;-80
2021/08/23 11:33:26;;;;;;;;;;;21.50;99.90;;;;;;5038413;28;19948;-81
2021/08/23 11:35:52;;;;;;;;;;;21.60;99.90;;;;;;5054530;28;19905;-80
2021/08/23 11:38:17;;;;;;;;;;;21.50;99.90;;;;;;5032356;28;19905;-80
2021/08/23 11:40:44;;;;;;;;;;;21.60;99.90;;;;;;5039443;28;19912;-81
2021/08/23 11:43:09;;;;;;;;;;;21.60;99.90;;;;;;5032091;28;19909;-80
2021/08/23 11:45:40;;;;;;;;;;;21.60;99.90;;;;;;5052341;28;19995;-81
2021/08/23 11:48:06;;;;;;;;;;;21.30;99.90;;;;;;5030471;28;20074;-81
2021/08/23 11:50:31;;;;;;;;;;;21.00;99.90;;;;;;5045622;28;20358;-80
2021/08/23 11:53:02;;;;;;;;;;;20.90;99.90;;;;;;5038144;28;19955;-79
2021/08/23 11:55:33;;;;;;;;;;;20.90;99.90;;;;;;5037509;28;19913;-79
2021/08/23 11:58:03;;;;;;;;;;;20.90;99.90;;;;;;5029191;28;19945;-80
2021/08/23 12:00:28;;;;;;;;;;;21.00;99.90;;;;;;5033632;28;19931;-80
2021/08/23 12:03:13;;;;;;;;;;;21.10;99.90;;;;;;5053894;28;19905;-81
2021/08/23 12:05:39;;;;;;;;;;;21.50;99.90;;;;;;5053614;28;19916;-80
2021/08/23 12:08:06;;;;;;;;;;;21.90;99.90;;;;;;5033676;28;19913;-80
2021/08/23 12:10:32;;;;;;;;;;;22.10;99.90;;;;;;5034783;28;19909;-81
2021/08/23 12:13:05;;;;;;;;;;;22.40;99.90;;;;;;5052708;28;20394;-81
2021/08/23 12:15:31;;;;;;;;;;;22.60;99.90;;;;;;5037779;28;20353;-80
2021/08/23 12:18:07;;;;;;;;;;;23.40;99.90;;;;;;5036047;28;20024;-80
2021/08/23 12:20:32;;;;;;;;;;;23.90;99.90;;;;;;5045976;28;19959;-80
2021/08/23 12:23:01;;;;;;;;;;;23.80;99.90;;;;;;5067164;28;19909;-79
2021/08/23 12:25:27;;;;;;;;;;;23.40;99.90;;;;;;5055531;28;19905;-79
2021/08/23 12:27:52;;;;;;;;;;;23.00;99.90;;;;;;5037243;28;20446;-79
2021/08/23 12:30:25;;;;;;;;;;;22.50;99.90;;;;;;5046291;28;19960;-80
2021/08/23 12:32:51;;;;;;;;;;;21.90;99.90;;;;;;5054103;28;19905;-80
2021/08/23 12:35:23;;;;;;;;;;;22.00;99.90;;;;;;5039060;28;19934;-79
2021/08/23 12:37:49;;;;;;;;;;;22.30;99.90;;;;;;5053306;28;19959;-79
2021/08/23 12:40:14;;;;;;;;;;;22.50;99.90;;;;;;5028647;28;19905;-79
2021/08/23 12:42:40;;;;;;;;;;;22.50;99.90;;;;;;5055620;28;19905;-80
2021/08/23 12:45:05;;;;;;;;;;;22.50;99.90;;;;;;5037834;28;19920;-79
2021/08/23 12:47:31;;;;;;;;;;;22.50;99.90;;;;;;5031237;28;19909;-80
2021/08/23 12:49:56;;;;;;;;;;;22.20;99.90;;;;;;5044682;28;19909;-81
2021/08/23 12:52:22;;;;;;;;;;;22.10;99.90;;;;;;5034462;28;19948;-80
2021/08/23 12:54:47;;;;;;;;;;;22.20;99.90;;;;;;5051748;28;20007;-81
2021/08/23 12:57:13;;;;;;;;;;;22.00;99.90;;;;;;5038641;28;19939;-80
2021/08/23 12:59:38;;;;;;;;;;;22.20;99.90;;;;;;5024573;28;19920;-80
2021/08/23 13:02:05;;;;;;;;;;;22.40;99.90;;;;;;5037297;28;19905;-81
2021/08/23 13:04:30;;;;;;;;;;;22.00;99.90;;;;;;5035765;28;19909;-81
2021/08/23 13:06:56;;;;;;;;;;;22.00;99.90;;;;;;5035477;28;19996;-80
2021/08/23 13:09:21;;;;;;;;;;;21.80;99.90;;;;;;5035200;28;19909;-81
2021/08/23 13:11:47;;;;;;;;;;;21.60;99.90;;;;;;5028938;28;19924;-80
2021/08/23 13:14:13;;;;;;;;;;;21.40;99.90;;;;;;5045542;28;19897;-81
2021/08/23 13:16:38;;;;;;;;;;;21.40;99.90;;;;;;5037750;28;20326;-82
2021/08/23 13:19:04;;;;;;;;;;;21.60;99.90;;;;;;5034509;28;20355;-80
2021/08/23 13:21:29;;;;;;;;;;;21.80;99.90;;;;;;5038961;28;19909;-81
2021/08/23 13:23:55;;;;;;;;;;;22.20;99.90;;;;;;5040754;28;19913;-80
2021/08/23 13:26:22;;;;;;;;;;;22.50;99.90;;;;;;5038410;28;20298;-80
2021/08/23 13:28:49;;;;;;;;;;;23.10;99.90;;;;;;5038434;28;19916;-80
2021/08/23 13:31:14;;;;;;;;;;;24.00;99.90;;;;;;5040502;28;20328;-79
2021/08/23 13:33:40;;;;;;;;;;;24.40;99.90;;;;;;5038508;28;19936;-79
2021/08/23 13:36:43;;;;;;;6.63;3.00;;;24.20;99.90;;;;;;5068746;28;20420;-61
2021/08/23 13:39:09;;;;;;;5.50;3.38;;;24.00;99.90;;;;;;5068288;28;20040;-61
2021/08/23 13:41:34;;;;;;;4.95;2.90;;;23.90;99.90;;;;;;5068314;28;20035;-61
2021/08/23 13:44:00;;;;;;;11.07;3.10;;;24.20;99.90;;;;;;5068164;28;20064;-61
2021/08/23 13:46:25;;;;;;;6.78;3.50;;;24.10;99.90;;;;;;5067684;28;20047;-61
2021/08/23 13:48:51;;;;;;;5.90;3.53;;;23.90;99.90;;;;;;5068168;28;20029;-61
2021/08/23 13:51:17;;;;;;;19.77;5.30;;;23.80;99.90;;;;;;5068729;28;20028;-61
2021/08/23 13:53:42;;;;;;;29.10;6.95;;;23.50;99.90;;;;;;5068684;28;20021;-61
2021/08/23 13:56:08;;;;;;;5.28;3.50;;;23.10;99.90;;;;;;5066441;28;20021;-61
2021/08/23 13:58:34;;;;;;;6.57;3.38;;;22.60;99.90;;;;;;5067936;28;20071;-61
2021/08/23 14:01:01;;;;;;;5.68;4.00;;;22.40;99.90;;;;;;5067665;28;20071;-61
2021/08/23 14:03:27;;;;;;;4.38;3.60;;;22.50;99.90;;;;;;5066747;28;20358;-61
2021/08/23 14:05:53;;;;;;;7.15;4.32;;;22.40;99.90;;;;;;5065240;28;20036;-61
2021/08/23 14:08:18;;;;;;;5.82;4.05;;;22.10;99.90;;;;;;5066946;28;20115;-61